Time;durP1;ratioP1;P1;durP2;ratioP2;P2;SDS_P1;SDS_P2;PMS_P1;PMS_P2;Temp;Humidity;BMP_temperature;BMP_pressure;BME280_temperature;BME280_humidity;BME280_pressure;Samples;Min_cycle;Max_cycle;Signal;HPM_P1;HPM_P2
2023/04/03 00:01:55;;;;;;;6.68;2.40;;;0.80;99.90;;;;;;6218599;23;20419;-85
2023/04/03 00:04:42;;;;;;;7.55;2.35;;;0.70;99.90;;;;;;6219660;23;20723;-85
2023/04/03 00:07:08;;;;;;;9.95;2.53;;;0.70;99.90;;;;;;6219066;23;20426;-85
2023/04/03 00:09:44;;;;;;;5.07;2.23;;;0.70;99.90;;;;;;6218112;23;20815;-86
2023/04/03 00:12:33;;;;;;;6.90;2.28;;;0.70;99.90;;;;;;6218866;23;20423;-85
2023/04/03 00:15:03;;;;;;;7.73;2.90;;;0.60;99.90;;;;;;6205145;23;20347;-86
2023/04/03 00:17:51;;;;;;;;;;;;;;;;;;;;;
2023/04/03 00:20:34;;;;;;;6.07;2.50;;;0.60;99.90;;;;;;6245573;23;20443;-85
2023/04/03 00:23:03;;;;;;;5.07;2.40;;;0.50;99.90;;;;;;6218592;23;20644;-85
2023/04/03 00:25:42;;;;;;;7.17;2.20;;;0.70;99.90;;;;;;6218718;23;20732;-85
2023/04/03 00:29:01;;;;;;;;;;;;;;;;;;;;;
2023/04/03 00:31:40;;;;;;;;;;;;;;;;;;;;;
2023/04/03 00:34:33;;;;;;;7.10;2.40;;;0.50;99.90;;;;;;6245277;23;20424;-86
2023/04/03 00:37:37;;;;;;;7.25;2.30;;;0.50;99.90;;;;;;6217640;23;20759;-85
2023/04/03 00:40:06;;;;;;;7.13;2.70;;;0.50;99.90;;;;;;6218000;23;20360;-85
2023/04/03 00:42:34;;;;;;;6.32;2.40;;;0.40;99.90;;;;;;6217834;23;20346;-84
2023/04/03 00:45:00;;;;;;;5.28;2.35;;;0.40;99.90;;;;;;6217913;23;20419;-84
2023/04/03 00:47:27;;;;;;;6.68;2.47;;;0.30;99.90;;;;;;6218399;23;20337;-85
2023/04/03 00:49:53;;;;;;;7.97;2.50;;;0.20;99.90;;;;;;6218344;23;20372;-85
2023/04/03 00:52:29;;;;;;;7.28;2.33;;;0.20;99.90;;;;;;6218094;23;20810;-84
2023/04/03 00:55:03;;;;;;;8.55;2.47;;;0.20;99.90;;;;;;6217572;23;20721;-84
2023/04/03 00:57:33;;;;;;;6.53;2.30;;;0.10;99.90;;;;;;6217318;23;20699;-84
2023/04/03 01:00:14;;;;;;;9.05;2.63;;;0.10;99.90;;;;;;6244442;23;20958;-84
2023/04/03 01:02:40;;;;;;;6.93;2.92;;;-0.10;99.90;;;;;;6244971;23;20399;-84
2023/04/03 01:05:07;;;;;;;8.00;2.47;;;0.00;99.90;;;;;;6245005;23;20332;-84
2023/04/03 01:07:36;;;;;;;7.65;2.60;;;0.00;99.90;;;;;;6217861;23;20806;-84
2023/04/03 01:10:06;;;;;;;7.40;2.87;;;-0.10;99.90;;;;;;6217574;23;20344;-82
2023/04/03 01:12:36;;;;;;;7.97;2.60;;;0.00;99.90;;;;;;6245097;23;20332;-84
2023/04/03 01:15:09;;;;;;;6.35;2.70;;;0.00;99.90;;;;;;6244588;23;20697;-85
2023/04/03 01:17:35;;;;;;;7.90;2.72;;;0.00;99.90;;;;;;6245755;23;20329;-84
2023/04/03 01:20:31;;;;;;;7.05;2.38;;;-0.10;99.90;;;;;;6219449;23;20812;-84
2023/04/03 01:23:02;;;;;;;8.50;3.25;;;0.00;99.90;;;;;;6219900;23;20332;-85
2023/04/03 01:25:28;;;;;;;5.53;2.30;;;0.10;99.90;;;;;;6246912;23;20423;-84
2023/04/03 01:27:54;;;;;;;5.72;2.75;;;0.00;99.90;;;;;;6246895;23;20343;-83
2023/04/03 01:30:25;;;;;;;7.18;2.70;;;-0.10;99.90;;;;;;6246668;23;20343;-84
2023/04/03 01:32:51;;;;;;;7.97;2.95;;;0.00;99.90;;;;;;6219672;23;20447;-84
2023/04/03 01:35:17;;;;;;;4.45;2.38;;;-0.10;99.90;;;;;;6219850;23;20426;-84
2023/04/03 01:37:43;;;;;;;7.90;2.83;;;0.10;99.90;;;;;;6181530;23;20732;-84
2023/04/03 01:40:14;;;;;;;6.22;2.65;;;-0.10;99.90;;;;;;6215609;23;20380;-83
2023/04/03 01:42:39;;;;;;;8.77;2.90;;;0.10;99.90;;;;;;6189371;23;20393;-84
2023/04/03 01:45:05;;;;;;;6.95;2.75;;;-0.10;99.90;;;;;;6216022;23;20835;-84
2023/04/03 01:47:34;;;;;;;7.88;2.60;;;-0.20;99.90;;;;;;6215841;23;20364;-84
2023/04/03 01:50:00;;;;;;;7.78;2.63;;;-0.20;99.90;;;;;;6189471;23;20354;-83
2023/04/03 01:52:26;;;;;;;5.38;2.53;;;-0.30;99.90;;;;;;6189570;23;20844;-83
2023/04/03 01:54:52;;;;;;;7.05;2.58;;;-0.40;99.90;;;;;;6216691;23;20357;-84
2023/04/03 01:57:18;;;;;;;6.07;2.80;;;-0.50;99.90;;;;;;6189284;23;20426;-84
2023/04/03 01:59:44;;;;;;;5.53;2.30;;;-0.50;99.90;;;;;;6215985;23;20366;-84
2023/04/03 02:02:12;;;;;;;6.32;2.60;;;-0.70;99.90;;;;;;6216424;23;20689;-84
2023/04/03 02:04:38;;;;;;;6.18;2.55;;;-0.70;99.90;;;;;;6189023;23;20354;-83
2023/04/03 02:07:04;;;;;;;6.25;2.65;;;-0.80;99.90;;;;;;6189049;23;20354;-84
2023/04/03 02:09:30;;;;;;;7.55;2.65;;;-0.90;99.90;;;;;;6188957;23;20354;-85
2023/04/03 02:11:58;;;;;;;6.57;3.10;;;-1.00;99.90;;;;;;6215861;23;20481;-84
2023/04/03 02:14:27;;;;;;;6.45;2.60;;;-1.10;99.90;;;;;;6215968;23;20377;-84
2023/04/03 02:16:52;;;;;;;7.28;2.78;;;-1.20;99.90;;;;;;6216208;23;20373;-84
2023/04/03 02:19:18;;;;;;;8.80;3.40;;;-1.30;99.90;;;;;;6215236;23;20856;-84
2023/04/03 02:21:44;;;;;;;6.85;3.10;;;-1.30;99.90;;;;;;6216357;23;20405;-84
2023/04/03 02:24:10;;;;;;;7.68;3.00;;;-1.30;99.90;;;;;;6188562;23;20758;-83
2023/04/03 02:26:39;;;;;;;6.32;2.70;;;-1.20;99.90;;;;;;6189282;23;20346;-84
2023/04/03 02:29:05;;;;;;;8.20;2.78;;;-1.20;99.90;;;;;;6188589;23;20354;-84
2023/04/03 02:31:31;;;;;;;5.90;2.33;;;-1.30;99.90;;;;;;6188314;23;20416;-84
2023/04/03 02:33:57;;;;;;;5.53;2.58;;;-1.30;99.90;;;;;;6215851;23;20374;-84
2023/04/03 02:36:23;;;;;;;4.63;2.40;;;-1.20;99.90;;;;;;6215893;23;20353;-84
2023/04/03 02:38:48;;;;;;;7.07;2.70;;;-1.10;99.90;;;;;;6214655;23;20441;-84
2023/04/03 02:41:14;;;;;;;4.30;2.38;;;-1.10;99.90;;;;;;6215311;23;20694;-84
2023/04/03 02:43:40;;;;;;;6.97;3.30;;;-1.10;99.90;;;;;;6215324;23;20350;-83
2023/04/03 02:46:06;;;;;;;4.65;2.50;;;-1.10;99.90;;;;;;6188753;23;20349;-83
2023/04/03 02:48:32;;;;;;;5.75;2.53;;;-1.10;99.90;;;;;;6188671;23;20378;-84
2023/04/03 02:50:58;;;;;;;6.28;2.58;;;-1.20;99.90;;;;;;6189487;23;20350;-83
2023/04/03 02:53:24;;;;;;;7.88;2.60;;;-1.30;99.90;;;;;;6188090;23;20373;-84
2023/04/03 02:55:50;;;;;;;5.90;2.65;;;-1.20;99.90;;;;;;6188923;23;20358;-84
2023/04/03 02:58:16;;;;;;;5.80;2.72;;;-1.20;99.90;;;;;;6215149;23;20357;-83
2023/04/03 03:00:41;;;;;;;9.05;2.78;;;-1.20;99.90;;;;;;6188684;23;20354;-84
2023/04/03 03:03:07;;;;;;;5.95;2.67;;;-1.20;99.90;;;;;;6188337;23;20346;-84
2023/04/03 03:05:34;;;;;;;7.53;2.53;;;-1.20;99.90;;;;;;6188192;23;20378;-84
2023/04/03 03:08:00;;;;;;;8.90;2.80;;;-1.20;99.90;;;;;;6187961;23;20345;-84
2023/04/03 03:10:26;;;;;;;6.45;2.90;;;-1.10;99.90;;;;;;6188697;23;20445;-84
2023/04/03 03:12:52;;;;;;;7.22;2.40;;;-1.20;99.90;;;;;;6214649;23;20901;-85
2023/04/03 03:15:19;;;;;;;5.90;2.63;;;-1.20;99.90;;;;;;6214807;23;20820;-84
2023/04/03 03:17:47;;;;;;;6.68;2.45;;;-1.10;99.90;;;;;;6215199;23;20419;-85
2023/04/03 03:20:15;;;;;;;7.20;2.50;;;-1.10;99.90;;;;;;6189127;23;20377;-84
2023/04/03 03:22:40;;;;;;;7.03;2.67;;;-1.10;99.90;;;;;;6215162;23;20346;-84
2023/04/03 03:25:06;;;;;;;6.07;2.63;;;-1.20;99.90;;;;;;6188037;23;20488;-83
2023/04/03 03:27:32;;;;;;;5.25;2.40;;;-1.10;99.90;;;;;;6188196;23;20357;-84
2023/04/03 03:29:58;;;;;;;7.53;2.63;;;-1.10;99.90;;;;;;6214803;23;20342;-84
2023/04/03 03:32:23;;;;;;;6.00;2.40;;;-1.10;99.90;;;;;;6188579;23;20346;-84
2023/04/03 03:34:49;;;;;;;8.63;2.70;;;-1.00;99.90;;;;;;6188521;23;20359;-84
2023/04/03 03:37:15;;;;;;;7.70;2.90;;;-1.20;99.90;;;;;;6188150;23;20385;-84
2023/04/03 03:39:40;;;;;;;6.47;2.70;;;-1.10;99.90;;;;;;6188140;23;20400;-83
2023/04/03 03:42:06;;;;;;;8.35;2.90;;;-1.10;99.90;;;;;;6215432;23;20698;-85
2023/04/03 03:44:32;;;;;;;5.30;2.17;;;-1.00;99.90;;;;;;6188241;23;20387;-85
2023/04/03 03:46:57;;;;;;;7.65;2.80;;;-1.00;99.90;;;;;;6188470;23;20365;-84
2023/04/03 03:49:23;;;;;;;6.22;2.42;;;-1.20;99.90;;;;;;6215290;23;20341;-82
2023/04/03 03:51:49;;;;;;;8.18;2.80;;;-1.10;99.90;;;;;;6190218;23;20365;-84
2023/04/03 03:54:15;;;;;;;6.05;3.40;;;-1.10;99.90;;;;;;6189544;23;20349;-84
2023/04/03 03:56:41;;;;;;;10.93;3.67;;;-1.10;99.90;;;;;;6189070;23;20440;-83
2023/04/03 03:59:07;;;;;;;7.47;2.70;;;-1.10;99.90;;;;;;6216946;23;20534;-86
2023/04/03 04:01:32;;;;;;;8.67;2.73;;;-1.10;99.90;;;;;;6217037;23;20377;-85
2023/04/03 04:03:58;;;;;;;9.90;2.70;;;-1.30;99.90;;;;;;6197921;23;20381;-86
2023/04/03 04:06:24;;;;;;;7.40;2.85;;;-1.20;99.90;;;;;;6215854;23;20345;-85
2023/04/03 04:08:49;;;;;;;7.40;2.72;;;-1.20;99.90;;;;;;6214731;23;20370;-84
2023/04/03 04:11:15;;;;;;;7.32;2.58;;;-1.10;99.90;;;;;;6214863;23;20350;-85
2023/04/03 04:13:41;;;;;;;5.32;2.60;;;-1.10;99.90;;;;;;6191730;23;20842;-86
2023/04/03 04:16:07;;;;;;;6.22;2.55;;;-1.20;99.90;;;;;;6187753;23;20697;-82
2023/04/03 04:18:33;;;;;;;6.70;2.38;;;-1.10;99.90;;;;;;6214375;23;20801;-85
2023/04/03 04:20:59;;;;;;;7.03;2.30;;;-1.20;99.90;;;;;;6187689;23;20415;-84
2023/04/03 04:23:25;;;;;;;7.68;2.60;;;-1.30;99.90;;;;;;6187682;23;20389;-85
2023/04/03 04:25:51;;;;;;;7.97;2.67;;;-1.30;99.90;;;;;;6214417;23;20350;-84
2023/04/03 04:28:17;;;;;;;4.45;2.03;;;-1.40;99.90;;;;;;6214556;23;20464;-85
2023/04/03 04:30:43;;;;;;;4.60;2.30;;;-1.30;99.90;;;;;;6188078;23;20437;-84
2023/04/03 04:33:08;;;;;;;6.93;2.60;;;-1.50;99.90;;;;;;6214698;23;20350;-85
2023/04/03 04:35:35;;;;;;;7.13;2.53;;;-1.50;99.90;;;;;;6214496;23;20349;-85
2023/04/03 04:38:01;;;;;;;8.75;2.72;;;-1.60;99.90;;;;;;6215092;23;20807;-85
2023/04/03 04:40:27;;;;;;;6.53;2.80;;;-1.60;99.90;;;;;;6215151;23;20368;-84
2023/04/03 04:42:53;;;;;;;6.07;2.40;;;-1.60;99.90;;;;;;6214995;23;20338;-86
2023/04/03 04:45:19;;;;;;;5.05;2.38;;;-1.50;99.90;;;;;;6214683;23;20468;-85
2023/04/03 04:47:45;;;;;;;6.05;2.60;;;-1.50;99.90;;;;;;6188234;23;20358;-84
2023/04/03 04:50:11;;;;;;;8.45;2.80;;;-1.40;99.90;;;;;;6214943;23;20424;-85
2023/04/03 04:52:38;;;;;;;6.13;2.60;;;-1.20;99.90;;;;;;6189798;23;20437;-84
2023/04/03 04:55:04;;;;;;;5.73;2.57;;;-1.20;99.90;;;;;;6216878;23;20369;-84
2023/04/03 04:57:30;;;;;;;6.15;2.70;;;-1.20;99.90;;;;;;6216259;23;20346;-85
2023/04/03 04:59:55;;;;;;;6.30;2.60;;;-1.20;99.90;;;;;;6216618;23;20371;-85
2023/04/03 05:02:21;;;;;;;6.82;2.58;;;-1.10;99.90;;;;;;6193625;23;20378;-85
2023/04/03 05:04:47;;;;;;;6.80;2.20;;;-1.10;99.90;;;;;;6216771;23;20342;-84
2023/04/03 05:07:12;;;;;;;8.45;2.92;;;-1.00;99.90;;;;;;6217744;23;20816;-84
2023/04/03 05:09:38;;;;;;;5.67;2.27;;;-1.10;99.90;;;;;;6195724;23;20370;-83
2023/04/03 05:12:04;;;;;;;6.55;2.50;;;-0.90;99.90;;;;;;6238750;23;20353;-85
2023/04/03 05:14:30;;;;;;;6.32;2.80;;;-0.90;99.90;;;;;;6215556;23;20358;-82
2023/04/03 05:16:56;;;;;;;8.73;2.42;;;-0.90;99.90;;;;;;6241178;23;20353;-83
2023/04/03 05:19:22;;;;;;;6.50;2.60;;;-0.80;99.90;;;;;;6235379;22;20465;-85
2023/04/03 05:21:48;;;;;;;6.65;2.38;;;-0.80;99.90;;;;;;6192980;23;20361;-85
2023/04/03 05:24:14;;;;;;;8.35;2.40;;;-0.70;99.90;;;;;;6191924;23;20360;-85
2023/04/03 05:26:40;;;;;;;6.47;2.50;;;-0.60;99.90;;;;;;6190492;23;20364;-85
2023/04/03 05:29:06;;;;;;;7.43;2.45;;;-0.70;99.90;;;;;;6216490;23;20437;-85
2023/04/03 05:31:31;;;;;;;5.93;2.60;;;-0.60;99.90;;;;;;6216535;23;20425;-86
2023/04/03 05:33:57;;;;;;;6.28;3.05;;;-0.50;99.90;;;;;;6216289;23;20766;-85
2023/04/03 05:36:23;;;;;;;7.25;2.47;;;-0.40;99.90;;;;;;6216931;23;20793;-84
2023/04/03 05:38:49;;;;;;;6.90;2.60;;;-0.30;99.90;;;;;;6189740;23;20400;-85
2023/04/03 05:41:15;;;;;;;9.48;2.55;;;-0.10;99.90;;;;;;6188801;23;20349;-85
2023/04/03 05:43:41;;;;;;;7.22;2.67;;;-0.10;99.90;;;;;;6216245;23;20342;-84
2023/04/03 05:46:15;;;;;;;8.95;2.90;;;-0.10;99.90;;;;;;6215631;23;20346;-85
2023/04/03 05:48:42;;;;;;;6.57;2.90;;;0.20;99.90;;;;;;6189066;23;20346;-84
2023/04/03 05:51:15;;;;;;;4.50;2.80;;;0.60;99.90;;;;;;6189363;23;20403;-85
2023/04/03 05:53:42;;;;;;;5.55;2.65;;;1.00;99.90;;;;;;6188752;23;20675;-85
2023/04/03 05:56:08;;;;;;;6.78;2.70;;;1.20;99.90;;;;;;6189050;23;20931;-84
2023/04/03 05:58:33;;;;;;;5.43;2.20;;;1.50;99.90;;;;;;6189404;23;20410;-85
2023/04/03 06:00:59;;;;;;;7.13;2.27;;;1.50;99.90;;;;;;6189020;23;20443;-85
2023/04/03 06:03:25;;;;;;;7.57;2.40;;;1.60;99.90;;;;;;6189260;23;20350;-85
2023/04/03 06:05:51;;;;;;;7.53;2.30;;;1.60;99.90;;;;;;6215619;23;20428;-85
2023/04/03 06:08:17;;;;;;;5.80;2.25;;;1.80;99.90;;;;;;6219019;23;20354;-85
2023/04/03 06:10:43;;;;;;;4.65;2.15;;;1.90;99.90;;;;;;6191761;23;20376;-85
2023/04/03 06:13:14;;;;;;;5.37;2.10;;;2.20;99.90;;;;;;6191766;23;20358;-86
2023/04/03 06:16:28;;;;;;;;;;;;;;;;;;;;;
2023/04/03 06:23:17;;;;;;;4.97;2.13;;;3.10;99.90;;;;;;6146539;23;20392;-85
2023/04/03 06:33:40;;;;;;;6.77;2.33;;;3.10;99.90;;;;;;5925788;24;21873;-85
2023/04/03 06:55:04;;;;;;;4.55;1.80;;;6.20;99.90;;;;;;5964747;23;20448;-83
2023/04/03 07:01:14;;;;;;;3.90;1.83;;;7.00;99.90;;;;;;5969407;23;20357;-83
2023/04/03 07:06:52;;;;;;;4.20;1.65;;;7.50;99.90;;;;;;6035647;23;20453;-82
2023/04/03 07:09:28;;;;;;;4.15;1.50;;;7.20;99.90;;;;;;6031707;23;20354;-82
2023/04/03 07:15:04;;;;;;;3.78;1.60;;;7.30;99.90;;;;;;6009367;23;20466;-83
2023/04/03 07:17:46;;;;;;;;;;;;;;;;;;;;;
2023/04/03 07:20:42;;;;;;;4.90;1.60;;;8.00;99.90;;;;;;6153318;23;20468;-83
2023/04/03 07:24:01;;;;;;;7.00;1.83;;;8.10;99.90;;;;;;6130645;23;20421;-83
2023/04/03 07:26:54;;;;;;;4.30;1.80;;;7.60;99.90;;;;;;6189388;23;20346;-83
2023/04/03 07:29:49;;;;;;;7.87;2.00;;;7.10;99.90;;;;;;6145820;23;20435;-82
2023/04/03 07:32:23;;;;;;;4.63;1.85;;;6.10;99.90;;;;;;6219568;23;20361;-82
2023/04/03 07:34:51;;;;;;;6.65;1.90;;;5.00;99.90;;;;;;6193061;23;20366;-84
2023/04/03 07:37:53;;;;;;;;;;;;;;;;;;;;;
2023/04/03 07:40:22;;;;;;;5.20;1.52;;;5.30;99.90;;;;;;6215776;23;20460;-83
2023/04/03 07:42:47;;;;;;;4.22;1.58;;;6.70;99.90;;;;;;6190296;23;20817;-82
2023/04/03 07:46:12;;;;;;;;;;;;;;;;;;;;;
2023/04/03 07:49:56;;;;;;;;;;;;;;;;;;;;;
2023/04/03 07:52:57;;;;;;;;;;;;;;;;;;;;;
2023/04/03 07:55:42;;;;;;;3.53;1.42;;;6.50;99.90;;;;;;6215839;23;20875;-82
2023/04/03 08:01:27;;;;;;;3.40;1.27;;;;;;;;;;6199629;23;20389;-82
2023/04/03 08:04:06;;;;;;;3.45;1.70;;;;;;;;;;6194699;23;20437;-83
2023/04/03 08:06:37;;;;;;;5.32;1.80;;;6.70;99.90;;;;;;6194035;23;20376;-83
2023/04/03 08:09:12;;;;;;;3.60;1.67;;;5.70;99.90;;;;;;6223999;23;20635;-83
2023/04/03 08:11:42;;;;;;;5.15;1.50;;;5.00;99.90;;;;;;6224703;23;20833;-83
2023/04/03 08:14:08;;;;;;;2.63;1.35;;;4.60;99.90;;;;;;6222598;23;20345;-82
2023/04/03 08:16:45;;;;;;;3.40;1.87;;;4.30;99.90;;;;;;6221923;23;20748;-84
2023/04/03 08:22:23;;;;;;;3.35;1.42;;;4.10;99.90;;;;;;6205940;23;20350;-83
2023/04/03 08:25:01;;;;;;;4.20;2.20;;;4.20;99.90;;;;;;6195050;23;20350;-83
2023/04/03 08:27:59;;;;;;;6.28;1.70;;;4.30;99.90;;;;;;6198295;23;20674;-83
2023/04/03 08:30:33;;;;;;;4.82;1.52;;;4.20;99.90;;;;;;6220035;23;20346;-84
2023/04/03 08:33:36;;;;;;;5.85;2.00;;;3.80;99.90;;;;;;6225256;23;20366;-83
2023/04/03 08:37:02;;;;;;;12.48;7.55;;;4.00;99.90;;;;;;6141887;23;20346;-84
2023/04/03 08:40:19;;;;;;;5.27;2.70;;;4.20;99.90;;;;;;6048644;23;20841;-84
2023/04/03 08:43:03;;;;;;;17.05;12.90;;;4.50;99.90;;;;;;6049158;23;20480;-84
2023/04/03 08:45:57;;;;;;;4.35;1.77;;;4.70;99.90;;;;;;6196133;23;20358;-84
2023/04/03 08:48:53;;;;;;;6.45;3.42;;;4.80;99.90;;;;;;6225818;23;20405;-83
2023/04/03 08:51:23;;;;;;;6.32;2.97;;;4.40;99.90;;;;;;6198459;23;20379;-84
2023/04/03 08:54:16;;;;;;;5.05;2.30;;;4.10;99.90;;;;;;6199205;23;20346;-83
2023/04/03 08:57:08;;;;;;;5.10;1.65;;;4.30;99.90;;;;;;6202428;23;20764;-82
2023/04/03 08:59:40;;;;;;;6.10;1.60;;;4.40;99.90;;;;;;6192900;23;20374;-82
2023/04/03 09:02:28;;;;;;;4.45;2.03;;;4.30;99.90;;;;;;6205775;23;20346;-83
2023/04/03 09:05:17;;;;;;;4.38;1.95;;;4.20;99.90;;;;;;6199447;23;20351;-83
2023/04/03 09:08:13;;;;;;;5.60;1.52;;;4.60;99.90;;;;;;6206861;23;20438;-84
2023/04/03 09:10:41;;;;;;;4.80;2.50;;;4.90;99.90;;;;;;6174168;23;20350;-84
2023/04/03 09:13:22;;;;;;;;;;;;;;;;;;;;;
2023/04/03 09:16:29;;;;;;;5.00;1.60;;;6.30;99.90;;;;;;6221832;23;20384;-85
2023/04/03 09:19:44;;;;;;;;;;;;;;;;;;;;;
2023/04/03 09:22:32;;;;;;;3.50;1.42;;;8.30;99.90;;;;;;6197188;23;20361;-84
2023/04/03 09:25:15;;;;;;;3.95;1.60;;;7.00;99.90;;;;;;6223016;23;20361;-84
2023/04/03 09:28:13;;;;;;;;;;;;;;;;;;;;;
2023/04/03 09:30:39;;;;;;;4.45;1.58;;;6.00;99.90;;;;;;6218984;23;20361;-84
2023/04/03 09:33:06;;;;;;;4.35;1.60;;;5.70;99.90;;;;;;6203109;23;20346;-83
2023/04/03 09:36:14;;;;;;;4.28;1.63;;;5.40;99.90;;;;;;6204464;23;20356;-82
2023/04/03 09:38:43;;;;;;;3.85;1.52;;;5.00;99.90;;;;;;6160175;23;20368;-84
2023/04/03 09:41:17;;;;;;;3.78;1.25;;;5.10;99.90;;;;;;6228726;23;20334;-84
2023/04/03 09:44:09;;;;;;;4.72;1.33;;;5.20;99.90;;;;;;6223653;23;20334;-83
2023/04/03 09:49:31;;;;;;;3.42;1.40;;;5.10;99.90;;;;;;6127539;23;20703;-83
2023/04/03 09:53:17;;;;;;;3.90;1.67;;;5.10;99.90;;;;;;6206916;23;20368;-83
2023/04/03 09:55:50;;;;;;;5.28;1.75;;;5.40;99.90;;;;;;6001858;23;20397;-83
2023/04/03 09:59:11;;;;;;;5.30;1.42;;;5.60;99.90;;;;;;6210042;23;20484;-83
2023/04/03 10:02:19;;;;;;;5.03;1.67;;;5.30;99.90;;;;;;6171065;23;20386;-83
2023/04/03 10:08:42;;;;;;;3.00;1.40;;;;;;;;;;6180804;23;20355;-83
2023/04/03 10:14:46;;;;;;;3.75;1.40;;;;;;;;;;6065234;23;20395;-83
2023/04/03 10:21:46;;;;;;;3.75;1.85;;;7.40;99.90;;;;;;6006571;23;20732;-84
2023/04/03 10:24:56;;;;;;;3.70;1.40;;;3.70;99.90;;;;;;5929747;24;20373;-83
2023/04/03 10:28:21;;;;;;;4.95;1.40;;;6.30;99.90;;;;;;6035808;23;20404;-83
2023/04/03 10:35:23;;;;;;;;;;;;;;;;;;;;;
2023/04/03 10:38:52;;;;;;;2.90;1.40;;;6.50;99.90;;;;;;6063930;23;20437;-83
2023/04/03 10:41:32;;;;;;;2.63;1.55;;;6.60;99.90;;;;;;6035386;23;20377;-85
2023/04/03 10:44:21;;;;;;;2.85;1.33;;;6.60;99.90;;;;;;6189517;23;20822;-84
2023/04/03 10:46:50;;;;;;;2.65;1.40;;;;;;;;;;6215037;23;20351;-84
2023/04/03 10:49:23;;;;;;;2.88;1.33;;;;;;;;;;6188507;23;20373;-85
2023/04/03 10:51:53;;;;;;;7.30;1.70;;;;;;;;;;6190170;23;20429;-84
2023/04/03 10:54:36;;;;;;;7.25;1.67;;;7.70;99.90;;;;;;6221284;23;20327;-84
2023/04/03 10:57:06;;;;;;;3.10;1.30;;;7.60;99.90;;;;;;6220132;23;20338;-84
2023/04/03 10:59:46;;;;;;;4.03;1.53;;;7.30;99.90;;;;;;6191526;23;20373;-84
2023/04/03 11:02:27;;;;;;;2.17;1.15;;;8.60;99.90;;;;;;6190067;23;20474;-84
2023/04/03 11:05:13;;;;;;;1.95;1.08;;;9.10;99.90;;;;;;6218840;23;20342;-84
2023/04/03 11:07:46;;;;;;;2.53;1.33;;;9.00;99.90;;;;;;6190559;23;20357;-85
2023/04/03 11:10:23;;;;;;;2.30;1.20;;;10.40;99.40;;;;;;6221763;23;20346;-84
2023/04/03 11:12:56;;;;;;;2.25;1.00;;;10.40;99.60;;;;;;6192682;23;20346;-84
2023/04/03 11:15:23;;;;;;;3.00;1.30;;;9.00;99.80;;;;;;6191017;23;20389;-84
2023/04/03 11:17:58;;;;;;;3.90;1.48;;;8.00;99.90;;;;;;6192751;23;20816;-85
2023/04/03 11:20:34;;;;;;;3.67;1.63;;;7.10;99.90;;;;;;6193336;23;20451;-85
2023/04/03 11:23:05;;;;;;;2.72;1.60;;;7.00;99.90;;;;;;6190586;23;20373;-84
2023/04/03 11:25:38;;;;;;;2.38;1.25;;;6.60;99.90;;;;;;6218070;23;20399;-84
2023/04/03 11:28:12;;;;;;;19.48;2.83;;;6.50;99.90;;;;;;6189217;23;20346;-85
2023/04/03 11:31:02;;;;;;;2.67;1.00;;;7.10;99.90;;;;;;6215529;23;20350;-84
2023/04/03 11:34:02;;;;;;;2.83;1.33;;;7.70;99.90;;;;;;6189431;23;20414;-84
2023/04/03 11:36:48;;;;;;;2.78;1.30;;;;;;;;;;6189889;23;20734;-84
2023/04/03 11:39:26;;;;;;;3.50;1.48;;;7.30;99.90;;;;;;6193681;23;20373;-82
2023/04/03 11:41:53;;;;;;;2.90;1.43;;;;;;;;;;6207701;23;20471;-82
2023/04/03 11:44:36;;;;;;;1.98;1.30;;;6.90;99.90;;;;;;6234527;23;20334;-82
2023/04/03 11:47:07;;;;;;;2.78;1.50;;;6.90;99.90;;;;;;6208760;23;20345;-81
2023/04/03 11:50:00;;;;;;;2.38;1.30;;;6.40;99.90;;;;;;6200426;23;20616;-83
2023/04/03 11:52:38;;;;;;;3.55;1.50;;;6.60;99.90;;;;;;6187569;23;20374;-84
2023/04/03 11:55:27;;;;;;;3.25;1.48;;;7.10;99.90;;;;;;6188957;23;20350;-83
2023/04/03 11:57:59;;;;;;;2.97;1.40;;;7.00;99.90;;;;;;6119662;23;20353;-84
2023/04/03 12:00:52;;;;;;;3.97;1.53;;;6.90;99.90;;;;;;6214584;23;20373;-84
2023/04/03 12:03:29;;;;;;;2.67;1.20;;;6.90;99.90;;;;;;6214637;23;20349;-84
2023/04/03 12:06:05;;;;;;;3.00;1.30;;;6.60;99.90;;;;;;6188011;23;20666;-84
2023/04/03 12:08:40;;;;;;;2.90;1.40;;;6.00;99.90;;;;;;6188464;23;20469;-84
2023/04/03 12:11:12;;;;;;;4.97;1.50;;;6.20;99.90;;;;;;6187797;23;20422;-84
2023/04/03 12:13:48;;;;;;;3.58;1.30;;;6.30;99.90;;;;;;6214641;23;20920;-84
2023/04/03 12:16:26;;;;;;;2.25;1.30;;;6.20;99.90;;;;;;6188820;23;20346;-84
2023/04/03 12:19:00;;;;;;;2.92;1.45;;;6.10;99.90;;;;;;6216292;23;20346;-85
2023/04/03 12:21:51;;;;;;;3.43;1.40;;;6.10;99.90;;;;;;6189285;23;20354;-85
2023/04/03 12:24:17;;;;;;;2.60;1.52;;;6.90;99.90;;;;;;6188256;23;20353;-86
2023/04/03 12:27:14;;;;;;;1.92;1.35;;;6.50;99.90;;;;;;6187924;23;20429;-84
2023/04/03 12:29:52;;;;;;;2.33;1.30;;;6.80;99.90;;;;;;6187731;23;20832;-84
2023/04/03 12:32:39;;;;;;;3.40;1.38;;;6.80;99.90;;;;;;6187414;23;20354;-84
2023/04/03 12:35:05;;;;;;;2.88;1.20;;;6.70;99.90;;;;;;6187469;23;20485;-84
2023/04/03 12:37:43;;;;;;;3.65;1.42;;;6.50;99.90;;;;;;6214651;23;20350;-84
2023/04/03 12:40:36;;;;;;;3.00;1.40;;;6.70;99.90;;;;;;6213801;23;20376;-85
2023/04/03 12:43:20;;;;;;;2.75;1.67;;;6.30;99.90;;;;;;6214265;23;20334;-84
2023/04/03 12:46:08;;;;;;;3.38;1.65;;;6.00;99.90;;;;;;6214740;23;20360;-85
2023/04/03 12:48:50;;;;;;;3.90;1.50;;;6.10;99.90;;;;;;6215243;23;20489;-85
2023/04/03 12:51:21;;;;;;;4.47;1.50;;;6.40;99.90;;;;;;6187843;23;20401;-84
2023/04/03 12:53:48;;;;;;;3.72;1.85;;;6.40;99.90;;;;;;6214255;23;20422;-85
2023/04/03 12:56:23;;;;;;;4.47;3.10;;;5.70;99.90;;;;;;6187894;23;20373;-85
2023/04/03 12:58:51;;;;;;;2.88;1.60;;;5.70;99.90;;;;;;6213729;23;20369;-85
2023/04/03 13:01:21;;;;;;;4.20;2.00;;;6.00;99.90;;;;;;6214246;23;20854;-85
2023/04/03 13:03:56;;;;;;;4.95;1.73;;;6.80;99.90;;;;;;6187111;23;20721;-84
2023/04/03 13:06:27;;;;;;;4.00;1.77;;;7.00;99.90;;;;;;6187495;23;20388;-83
2023/04/03 13:09:01;;;;;;;3.47;1.60;;;6.50;99.90;;;;;;6186934;23;20350;-83
2023/04/03 13:11:40;;;;;;;4.30;1.42;;;6.40;99.90;;;;;;6213547;23;20349;-84
2023/04/03 13:14:20;;;;;;;4.55;1.85;;;5.80;99.90;;;;;;6188446;23;20342;-84
2023/04/03 13:17:08;;;;;;;5.30;1.73;;;6.20;99.90;;;;;;6216734;23;20368;-83
2023/04/03 13:19:39;;;;;;;3.15;1.70;;;6.30;99.90;;;;;;6188474;23;20367;-83
2023/04/03 13:22:08;;;;;;;2.78;1.40;;;6.40;99.90;;;;;;6188666;23;20350;-83
2023/04/03 13:24:38;;;;;;;4.43;1.60;;;6.40;99.90;;;;;;6213869;23;20802;-84
2023/04/03 13:27:05;;;;;;;2.42;1.60;;;6.30;99.90;;;;;;6188775;23;20353;-83
2023/04/03 13:29:35;;;;;;;3.58;1.40;;;6.20;99.90;;;;;;6189223;23;20896;-83
2023/04/03 13:32:03;;;;;;;3.75;1.60;;;6.90;99.90;;;;;;6215682;23;20357;-83
2023/04/03 13:34:42;;;;;;;3.17;1.60;;;6.50;99.90;;;;;;6189429;23;20424;-83
2023/04/03 13:37:28;;;;;;;3.80;1.40;;;5.80;99.90;;;;;;6188936;23;20346;-84
2023/04/03 13:40:08;;;;;;;6.70;1.73;;;6.40;99.90;;;;;;6215449;23;20754;-84
2023/04/03 13:42:36;;;;;;;4.47;1.70;;;6.30;99.90;;;;;;6218656;23;20388;-84
2023/04/03 13:45:23;;;;;;;3.58;1.83;;;6.00;99.90;;;;;;6190065;23;20354;-84
2023/04/03 13:47:54;;;;;;;3.60;1.63;;;6.40;99.90;;;;;;6217750;23;20665;-84
2023/04/03 13:50:25;;;;;;;3.95;1.40;;;5.90;99.90;;;;;;6189927;23;20350;-83
2023/04/03 13:53:12;;;;;;;6.30;1.77;;;6.60;99.90;;;;;;6191162;23;20437;-84
2023/04/03 13:55:56;;;;;;;3.53;1.52;;;6.00;99.90;;;;;;6215682;23;20342;-83
2023/04/03 13:58:28;;;;;;;3.22;1.30;;;6.30;99.90;;;;;;6189623;23;20354;-83
2023/04/03 14:01:15;;;;;;;3.30;1.40;;;6.30;99.90;;;;;;6218521;23;20832;-83
2023/04/03 14:04:09;;;;;;;3.03;1.60;;;5.80;99.90;;;;;;6189660;23;20350;-83
2023/04/03 14:06:35;;;;;;;2.80;1.33;;;5.90;99.90;;;;;;6218764;23;20362;-84
2023/04/03 14:09:02;;;;;;;2.45;1.50;;;5.90;99.90;;;;;;6191716;23;20350;-83
2023/04/03 14:11:30;;;;;;;2.70;1.50;;;5.80;99.90;;;;;;6220421;23;20338;-83
2023/04/03 14:14:04;;;;;;;4.47;1.48;;;5.70;99.90;;;;;;6193352;23;20674;-83
2023/04/03 14:16:32;;;;;;;2.78;1.60;;;5.70;99.90;;;;;;6192502;23;20404;-84
2023/04/03 14:18:58;;;;;;;2.65;1.60;;;5.60;99.90;;;;;;6193686;23;20433;-84
2023/04/03 14:21:24;;;;;;;3.42;1.58;;;5.60;99.90;;;;;;6217665;23;20362;-83
2023/04/03 14:23:50;;;;;;;2.25;1.10;;;5.50;99.90;;;;;;6189161;23;20678;-84
2023/04/03 14:26:20;;;;;;;2.78;1.50;;;5.90;99.90;;;;;;6215573;23;20353;-84
2023/04/03 14:28:47;;;;;;;4.57;1.45;;;6.00;99.90;;;;;;6189648;23;20385;-83
2023/04/03 14:31:15;;;;;;;4.07;1.60;;;6.00;99.90;;;;;;6189716;23;20342;-84
2023/04/03 14:33:41;;;;;;;4.90;1.52;;;5.90;99.90;;;;;;6189372;23;20358;-84
2023/04/03 14:36:17;;;;;;;2.63;1.30;;;6.10;99.90;;;;;;6189419;23;20369;-83
2023/04/03 14:38:44;;;;;;;2.95;1.33;;;5.90;99.90;;;;;;6189038;23;20433;-83
2023/04/03 14:41:15;;;;;;;2.28;1.27;;;6.30;99.90;;;;;;6189638;23;20365;-84
2023/04/03 14:43:42;;;;;;;3.85;1.48;;;6.00;99.90;;;;;;6189902;23;20352;-83
2023/04/03 14:46:16;;;;;;;2.30;1.52;;;6.10;99.90;;;;;;6189061;23;20354;-83
2023/04/03 14:48:42;;;;;;;5.07;1.52;;;5.80;99.90;;;;;;6214888;23;20353;-83
2023/04/03 14:51:11;;;;;;;1.98;1.35;;;5.50;99.90;;;;;;6214499;23;20349;-81
2023/04/03 14:53:37;;;;;;;2.33;1.42;;;5.00;99.90;;;;;;6188267;23;20350;-83
2023/04/03 14:56:11;;;;;;;3.75;1.60;;;5.40;99.90;;;;;;6214773;23;20456;-82
2023/04/03 14:58:36;;;;;;;3.33;1.30;;;5.40;99.90;;;;;;6214908;23;20430;-84